Terminal Aerodrome Forecast
Issued by NWS North Platte, NE

Home | Current Version | Previous Version | Text Only | Print | Product List | Glossary Off
Versions: 1 2 3 4 5 6 7 8 9 10 11 12 13

000
FTUS43 KLBF 241100
TAFVTN
TAF
KVTN 241129Z 2412/2512 27010KT P6SM SCT150
     FM241500 27012G18KT P6SM FEW150
     FM250100 VRB06KT P6SM SCT120=

USA.gov is the U.S. government's official web portal to all federal, state and local government web resources and services.